Time;durP1;ratioP1;P1;durP2;ratioP2;P2;SDS_P1;SDS_P2;PMS_P1;PMS_P2;Temp;Humidity;BMP_temperature;BMP_pressure;BME280_temperature;BME280_humidity;BME280_pressure;Samples;Min_cycle;Max_cycle;Signal;HPM_P1;HPM_P2
2023/08/23 00:01:23;;;;;;;;;;;19.30;57.10;;;;;;5030992;28;20385;-66
2023/08/23 00:03:48;;;;;;;;;;;19.30;57.10;;;;;;5028898;28;20288;-66
2023/08/23 00:06:14;;;;;;;;;;;19.30;57.10;;;;;;5028984;28;20292;-67
2023/08/23 00:08:39;;;;;;;;;;;19.30;57.20;;;;;;5030865;28;19996;-67
2023/08/23 00:11:04;;;;;;;;;;;19.30;57.30;;;;;;5033232;28;19921;-67
2023/08/23 00:13:30;;;;;;;;;;;19.20;57.30;;;;;;5032053;28;19913;-67
2023/08/23 00:15:55;;;;;;;;;;;19.20;57.30;;;;;;5033819;28;19928;-67
2023/08/23 00:18:21;;;;;;;;;;;19.20;57.40;;;;;;5033499;28;19913;-67
2023/08/23 00:20:46;;;;;;;;;;;19.20;57.40;;;;;;5034167;28;19921;-67
2023/08/23 00:23:12;;;;;;;;;;;19.10;57.40;;;;;;5034163;28;19919;-68
2023/08/23 00:25:37;;;;;;;;;;;19.10;57.50;;;;;;5034725;28;19913;-67
2023/08/23 00:28:03;;;;;;;;;;;19.10;57.60;;;;;;5034118;28;19913;-67
2023/08/23 00:30:28;;;;;;;;;;;19.00;57.60;;;;;;5034595;28;20016;-69
2023/08/23 00:32:53;;;;;;;;;;;19.00;57.60;;;;;;5034316;28;19913;-68
2023/08/23 00:35:19;;;;;;;;;;;19.00;58.00;;;;;;5034049;28;19913;-67
2023/08/23 00:37:45;;;;;;;;;;;19.00;58.80;;;;;;5032300;28;19975;-67
2023/08/23 00:40:10;;;;;;;;;;;19.00;58.50;;;;;;5034114;28;19917;-67
2023/08/23 00:42:36;;;;;;;;;;;19.00;58.70;;;;;;5033183;28;19913;-67
2023/08/23 00:45:02;;;;;;;;;;;19.00;58.60;;;;;;5032167;28;20321;-68
2023/08/23 00:47:28;;;;;;;;;;;19.00;58.60;;;;;;5033397;28;19913;-68
2023/08/23 00:49:55;;;;;;;;;;;18.90;58.60;;;;;;5033523;28;19991;-68
2023/08/23 00:52:21;;;;;;;;;;;18.80;58.90;;;;;;5031907;28;20293;-68
2023/08/23 00:54:47;;;;;;;;;;;18.80;58.90;;;;;;5033223;28;19921;-68
2023/08/23 00:57:12;;;;;;;;;;;18.80;58.70;;;;;;5033119;28;20341;-68
2023/08/23 00:59:38;;;;;;;;;;;18.80;58.70;;;;;;5033721;28;19913;-68
2023/08/23 01:02:03;;;;;;;;;;;18.80;59.10;;;;;;5033035;28;19917;-75
2023/08/23 01:04:29;;;;;;;;;;;18.80;59.40;;;;;;5034232;28;19998;-74
2023/08/23 01:07:06;;;;;;;;;;;18.80;59.30;;;;;;5028745;28;19924;-74
2023/08/23 01:09:41;;;;;;;;;;;18.80;59.00;;;;;;5032121;28;20347;-73
2023/08/23 01:12:11;;;;;;;;;;;18.80;59.10;;;;;;5031973;28;19921;-75
2023/08/23 01:14:40;;;;;;;;;;;18.80;59.60;;;;;;5033355;28;19962;-74
2023/08/23 01:17:06;;;;;;;;;;;18.80;59.50;;;;;;5033586;28;19921;-74
2023/08/23 01:19:31;;;;;;;;;;;18.80;59.40;;;;;;5033491;28;19913;-73
2023/08/23 01:21:57;;;;;;;;;;;18.80;59.30;;;;;;5031828;28;19927;-75
2023/08/23 01:24:22;;;;;;;;;;;18.80;59.20;;;;;;5033230;28;19919;-75
2023/08/23 01:26:48;;;;;;;;;;;18.70;59.10;;;;;;5033729;28;19917;-74
2023/08/23 01:29:14;;;;;;;;;;;18.70;59.00;;;;;;5033076;28;19913;-74
2023/08/23 01:31:42;;;;;;;;;;;18.70;59.40;;;;;;5016274;28;19940;-74
2023/08/23 01:34:09;;;;;;;;;;;18.70;59.20;;;;;;5013147;28;19909;-71
2023/08/23 01:36:36;;;;;;;;;;;18.60;59.50;;;;;;5013680;28;19921;-75
2023/08/23 01:39:02;;;;;;;;;;;18.60;59.40;;;;;;5013291;28;19909;-75
2023/08/23 01:41:28;;;;;;;;;;;18.50;59.30;;;;;;5013333;28;19929;-74
2023/08/23 01:43:54;;;;;;;;;;;18.50;59.30;;;;;;5023305;28;19913;-74
2023/08/23 01:46:19;;;;;;;;;;;18.40;59.30;;;;;;5033053;28;19917;-73
2023/08/23 01:48:44;;;;;;;;;;;18.40;59.40;;;;;;5032695;28;19913;-74
2023/08/23 01:51:10;;;;;;;;;;;18.30;59.40;;;;;;5032908;28;19921;-71
2023/08/23 01:53:35;;;;;;;;;;;18.30;59.40;;;;;;5031499;28;20399;-74
2023/08/23 01:56:01;;;;;;;;;;;18.30;59.60;;;;;;5032565;28;19913;-75
2023/08/23 01:58:26;;;;;;;;;;;18.30;59.70;;;;;;5031983;28;19917;-72
2023/08/23 02:00:52;;;;;;;;;;;18.20;59.60;;;;;;5033196;28;19921;-73
2023/08/23 02:03:18;;;;;;;;;;;18.20;59.70;;;;;;5027724;28;20292;-73
2023/08/23 02:05:44;;;;;;;;;;;18.20;59.60;;;;;;5026838;28;19914;-73
2023/08/23 02:08:09;;;;;;;;;;;18.10;59.60;;;;;;5013970;28;20373;-73
2023/08/23 02:10:34;;;;;;;;;;;18.10;59.70;;;;;;5024420;28;19921;-68
2023/08/23 02:13:00;;;;;;;;;;;18.10;59.70;;;;;;5033601;28;20369;-74
2023/08/23 02:15:25;;;;;;;;;;;18.00;59.60;;;;;;5031046;28;20368;-74
2023/08/23 02:17:52;;;;;;;;;;;18.00;59.60;;;;;;5032447;28;20348;-73
2023/08/23 02:20:17;;;;;;;;;;;18.00;59.60;;;;;;5031904;28;20023;-74
2023/08/23 02:22:43;;;;;;;;;;;18.00;59.70;;;;;;5032013;28;20008;-73
2023/08/23 02:25:08;;;;;;;;;;;17.90;59.80;;;;;;5030937;28;20372;-74
2023/08/23 02:27:33;;;;;;;;;;;17.90;59.80;;;;;;5032093;28;20373;-74
2023/08/23 02:29:59;;;;;;;;;;;17.90;59.80;;;;;;5032318;28;20289;-74
2023/08/23 02:32:25;;;;;;;;;;;17.90;60.40;;;;;;5032214;28;19928;-73
2023/08/23 02:34:50;;;;;;;;;;;17.80;60.70;;;;;;5031117;28;19913;-74
2023/08/23 02:37:16;;;;;;;;;;;17.80;60.60;;;;;;5030818;28;19923;-74
2023/08/23 02:39:42;;;;;;;;;;;17.80;60.50;;;;;;5032438;28;19920;-74
2023/08/23 02:42:07;;;;;;;;;;;17.80;60.50;;;;;;5031914;28;19924;-74
2023/08/23 02:44:33;;;;;;;;;;;17.80;61.00;;;;;;5030844;28;20258;-74
2023/08/23 02:46:58;;;;;;;;;;;17.80;61.20;;;;;;5030832;28;20019;-74
2023/08/23 02:49:24;;;;;;;;;;;17.80;61.20;;;;;;5031064;28;19921;-74
2023/08/23 02:51:49;;;;;;;;;;;17.80;61.20;;;;;;5031879;28;19917;-71
2023/08/23 02:54:15;;;;;;;;;;;17.80;61.20;;;;;;5030851;28;19971;-70
2023/08/23 02:56:40;;;;;;;;;;;17.80;61.30;;;;;;5031882;28;19968;-69
2023/08/23 02:59:06;;;;;;;;;;;17.80;61.20;;;;;;5022480;28;20276;-70
2023/08/23 03:01:31;;;;;;;;;;;17.80;61.30;;;;;;5031641;28;19964;-69
2023/08/23 03:03:57;;;;;;;;;;;17.70;61.30;;;;;;5020868;28;19945;-69
2023/08/23 03:06:22;;;;;;;;;;;17.70;61.30;;;;;;5011970;28;19967;-69
2023/08/23 03:08:48;;;;;;;;;;;17.60;61.40;;;;;;5012020;28;19913;-69
2023/08/23 03:11:13;;;;;;;;;;;17.60;61.40;;;;;;5011853;28;19917;-69
2023/08/23 03:13:38;;;;;;;;;;;17.50;61.50;;;;;;5011761;28;19910;-69
2023/08/23 03:16:04;;;;;;;;;;;17.50;61.50;;;;;;5020919;28;19909;-69
2023/08/23 03:18:29;;;;;;;;;;;17.50;61.60;;;;;;5031355;28;19976;-69
2023/08/23 03:20:55;;;;;;;;;;;17.50;61.70;;;;;;5031525;28;19917;-70
2023/08/23 03:23:20;;;;;;;;;;;17.50;61.80;;;;;;5031543;28;19909;-69
2023/08/23 03:25:46;;;;;;;;;;;17.50;62.10;;;;;;5031182;28;19971;-69
2023/08/23 03:28:12;;;;;;;;;;;17.50;62.10;;;;;;5031415;28;20361;-69
2023/08/23 03:30:38;;;;;;;;;;;17.40;62.00;;;;;;5031175;28;19916;-68
2023/08/23 03:33:04;;;;;;;;;;;17.40;62.00;;;;;;5031388;28;19960;-69
2023/08/23 03:35:29;;;;;;;;;;;17.40;62.10;;;;;;5028912;28;19920;-69
2023/08/23 03:37:55;;;;;;;;;;;17.40;62.00;;;;;;5031545;28;19925;-69
2023/08/23 03:40:20;;;;;;;;;;;17.30;62.00;;;;;;5028800;28;19917;-69
2023/08/23 03:42:46;;;;;;;;;;;17.30;62.20;;;;;;5031653;28;20379;-69
2023/08/23 03:45:11;;;;;;;;;;;17.30;62.30;;;;;;5029074;28;19931;-70
2023/08/23 03:47:36;;;;;;;;;;;17.30;62.30;;;;;;5034255;28;20377;-69
2023/08/23 03:50:03;;;;;;;;;;;17.30;62.20;;;;;;5034168;28;20374;-69
2023/08/23 03:52:28;;;;;;;;;;;17.20;62.40;;;;;;5034489;28;19917;-69
2023/08/23 03:54:54;;;;;;;;;;;17.20;62.40;;;;;;5033710;28;19932;-69
2023/08/23 03:57:19;;;;;;;;;;;17.20;62.50;;;;;;5035288;28;19987;-69
2023/08/23 03:59:45;;;;;;;;;;;17.20;62.50;;;;;;5019561;28;19913;-68
2023/08/23 04:02:10;;;;;;;;;;;17.20;62.50;;;;;;5030644;28;19932;-68
2023/08/23 04:04:35;;;;;;;;;;;17.10;62.60;;;;;;5033604;28;20007;-68
2023/08/23 04:07:01;;;;;;;;;;;17.10;62.80;;;;;;5033257;28;19917;-69
2023/08/23 04:09:26;;;;;;;;;;;17.10;62.90;;;;;;5032750;28;19913;-69
2023/08/23 04:11:52;;;;;;;;;;;17.10;62.90;;;;;;5034910;28;20376;-70
2023/08/23 04:14:17;;;;;;;;;;;17.10;63.00;;;;;;5033974;28;20015;-70
2023/08/23 04:16:43;;;;;;;;;;;17.10;63.10;;;;;;5032144;28;19921;-70
2023/08/23 04:19:08;;;;;;;;;;;17.10;63.20;;;;;;5034599;28;19955;-69
2023/08/23 04:21:34;;;;;;;;;;;17.10;63.30;;;;;;5034688;28;20461;-70
2023/08/23 04:23:59;;;;;;;;;;;17.10;63.50;;;;;;5033869;28;19913;-69
2023/08/23 04:26:25;;;;;;;;;;;17.10;63.50;;;;;;5032084;28;20016;-69
2023/08/23 04:28:51;;;;;;;;;;;17.10;63.50;;;;;;5033827;28;19920;-70
2023/08/23 04:31:16;;;;;;;;;;;17.10;63.40;;;;;;5033446;28;19917;-74
2023/08/23 04:33:42;;;;;;;;;;;17.10;63.50;;;;;;5035154;28;19916;-73
2023/08/23 04:36:07;;;;;;;;;;;17.20;63.60;;;;;;5035584;28;19956;-74
2023/08/23 04:38:33;;;;;;;;;;;17.20;63.70;;;;;;5035268;28;19913;-73
2023/08/23 04:40:59;;;;;;;;;;;17.30;63.90;;;;;;5035332;28;20368;-75
2023/08/23 04:43:25;;;;;;;;;;;17.30;64.00;;;;;;5035221;28;20302;-74
2023/08/23 04:45:52;;;;;;;;;;;17.50;64.20;;;;;;5034285;28;19915;-73
2023/08/23 04:48:17;;;;;;;;;;;17.60;64.50;;;;;;5034534;28;19944;-75
2023/08/23 04:50:43;;;;;;;;;;;17.70;64.70;;;;;;5035512;28;19917;-73
2023/08/23 04:53:09;;;;;;;;;;;17.90;64.60;;;;;;5034404;28;19921;-74
2023/08/23 04:55:34;;;;;;;;;;;18.00;65.00;;;;;;5032239;28;19956;-73
2023/08/23 04:58:00;;;;;;;;;;;18.30;65.30;;;;;;5033853;28;20076;-73
2023/08/23 05:00:25;;;;;;;;;;;18.40;65.60;;;;;;5035401;28;19913;-74
2023/08/23 05:02:50;;;;;;;;;;;18.70;65.60;;;;;;5035895;28;19925;-73
2023/08/23 05:05:16;;;;;;;;;;;18.80;65.80;;;;;;5035466;28;19909;-72
2023/08/23 05:07:41;;;;;;;;;;;19.10;66.10;;;;;;5035643;28;19925;-73
2023/08/23 05:10:07;;;;;;;;;;;19.30;66.30;;;;;;5035028;28;20288;-73
2023/08/23 05:12:33;;;;;;;;;;;19.60;66.50;;;;;;5034575;28;19918;-74
2023/08/23 05:14:58;;;;;;;;;;;19.90;66.80;;;;;;5014398;28;19909;-73
2023/08/23 05:17:24;;;;;;;;;;;20.30;66.90;;;;;;5025025;28;19963;-73
2023/08/23 05:19:49;;;;;;;;;;;20.60;66.90;;;;;;5035664;28;20292;-72
2023/08/23 05:22:15;;;;;;;;;;;21.00;66.80;;;;;;5035716;28;19932;-73
2023/08/23 05:24:40;;;;;;;;;;;21.30;66.90;;;;;;5035323;28;19910;-72
2023/08/23 05:27:06;;;;;;;;;;;21.60;67.00;;;;;;5033735;28;20294;-73
2023/08/23 05:29:31;;;;;;;;;;;22.00;67.10;;;;;;5035116;28;19936;-73
2023/08/23 05:31:57;;;;;;;;;;;22.40;66.80;;;;;;5034409;28;19917;-73
2023/08/23 05:34:22;;;;;;;;;;;22.70;66.80;;;;;;5033635;28;20012;-73
2023/08/23 05:36:48;;;;;;;;;;;23.10;66.70;;;;;;5033423;28;19921;-75
2023/08/23 05:39:13;;;;;;;;;;;23.50;66.60;;;;;;5033167;28;19915;-73
2023/08/23 05:41:38;;;;;;;;;;;23.90;66.70;;;;;;5034798;28;19925;-69
2023/08/23 05:44:04;;;;;;;;;;;24.30;66.80;;;;;;5031766;28;20365;-68
2023/08/23 05:46:29;;;;;;;;;;;24.70;66.60;;;;;;5032868;28;19920;-69
2023/08/23 05:48:55;;;;;;;;;;;25.20;65.80;;;;;;5032731;28;20388;-69
2023/08/23 05:51:21;;;;;;;;;;;25.50;65.70;;;;;;5031766;28;20343;-68
2023/08/23 05:53:46;;;;;;;;;;;25.90;65.50;;;;;;5031217;28;19921;-68
2023/08/23 05:56:12;;;;;;;;;;;26.30;65.40;;;;;;5033579;28;19917;-68
2023/08/23 05:58:37;;;;;;;;;;;26.70;64.80;;;;;;5024530;28;19914;-68
2023/08/23 06:01:03;;;;;;;;;;;27.00;64.10;;;;;;5021994;28;19924;-68
2023/08/23 06:03:28;;;;;;;;;;;27.30;63.70;;;;;;5011508;28;19952;-68
2023/08/23 06:05:57;;;;;;;;;;;27.70;63.40;;;;;;5020199;28;19932;-68
2023/08/23 06:08:24;;;;;;;;;;;28.10;63.80;;;;;;5027416;28;20280;-68
2023/08/23 06:10:50;;;;;;;;;;;28.50;63.60;;;;;;5027141;28;19909;-68
2023/08/23 06:13:15;;;;;;;;;;;29.00;64.20;;;;;;5030770;28;19917;-68
2023/08/23 06:15:41;;;;;;;;;;;29.50;63.80;;;;;;5029479;28;20422;-69
2023/08/23 06:18:06;;;;;;;;;;;29.80;62.50;;;;;;5031216;28;19969;-68
2023/08/23 06:20:32;;;;;;;;;;;30.20;61.80;;;;;;5032228;28;19932;-68
2023/08/23 06:22:57;;;;;;;;;;;30.30;61.20;;;;;;5030925;28;19917;-68
2023/08/23 06:25:23;;;;;;;;;;;30.20;59.50;;;;;;5032097;28;19913;-68
2023/08/23 06:27:48;;;;;;;;;;;30.10;59.10;;;;;;5026651;28;20335;-67
2023/08/23 06:30:17;;;;;;;;;;;30.20;59.90;;;;;;5031890;28;19913;-67
2023/08/23 06:32:48;;;;;;;;;;;30.50;60.40;;;;;;5032045;28;19976;-68
2023/08/23 06:35:14;;;;;;;;;;;30.90;61.10;;;;;;5029811;28;20377;-68
2023/08/23 06:37:40;;;;;;;;;;;31.50;61.40;;;;;;5031821;28;19916;-68
2023/08/23 06:40:06;;;;;;;;;;;31.90;60.70;;;;;;5031199;28;19921;-68
2023/08/23 06:42:31;;;;;;;;;;;32.40;59.40;;;;;;5031926;28;19916;-68
2023/08/23 06:44:57;;;;;;;;;;;32.80;57.20;;;;;;5032148;28;19995;-69
2023/08/23 06:47:22;;;;;;;;;;;33.10;56.50;;;;;;5031202;28;19909;-67
2023/08/23 06:49:48;;;;;;;;;;;33.50;55.90;;;;;;5031159;28;19924;-67
2023/08/23 06:52:13;;;;;;;;;;;33.80;54.80;;;;;;5030218;28;20373;-75
2023/08/23 06:54:38;;;;;;;;;;;34.30;54.10;;;;;;5031096;28;19917;-75
2023/08/23 06:57:04;;;;;;;;;;;34.60;51.60;;;;;;5030933;28;19965;-76
2023/08/23 06:59:29;;;;;;;;;;;34.90;49.60;;;;;;5030327;28;19917;-75
2023/08/23 07:01:55;;;;;;;;;;;35.20;48.00;;;;;;5031724;28;20391;-76
2023/08/23 07:04:20;;;;;;;;;;;35.30;46.50;;;;;;5032065;28;20430;-76
2023/08/23 07:06:46;;;;;;;;;;;35.60;45.60;;;;;;5030359;28;19980;-77
2023/08/23 07:09:11;;;;;;;;;;;35.90;45.40;;;;;;5031990;28;19917;-73
2023/08/23 07:11:38;;;;;;;;;;;36.30;43.10;;;;;;5029577;28;20003;-77
2023/08/23 07:14:04;;;;;;;;;;;36.50;41.40;;;;;;5031782;28;19992;-76
2023/08/23 07:16:29;;;;;;;;;;;36.70;40.50;;;;;;5031655;28;20321;-77
2023/08/23 07:18:55;;;;;;;;;;;37.10;40.00;;;;;;5031234;28;19936;-77
2023/08/23 07:21:20;;;;;;;;;;;37.20;37.70;;;;;;5034629;28;19924;-77
2023/08/23 07:23:45;;;;;;;;;;;37.30;37.10;;;;;;5035660;28;19921;-75
2023/08/23 07:26:11;;;;;;;;;;;37.50;37.10;;;;;;5035267;28;19921;-74
2023/08/23 07:28:36;;;;;;;;;;;37.70;36.50;;;;;;5034638;28;19924;-75
2023/08/23 07:31:02;;;;;;;;;;;38.00;36.30;;;;;;5035235;28;20277;-75
2023/08/23 07:33:28;;;;;;;;;;;38.30;35.40;;;;;;5034264;28;19917;-76
2023/08/23 07:35:54;;;;;;;;;;;38.50;35.00;;;;;;5035222;28;19949;-75
2023/08/23 07:38:20;;;;;;;;;;;38.80;34.90;;;;;;5034518;28;19924;-76
2023/08/23 07:40:45;;;;;;;;;;;39.10;34.60;;;;;;5035043;28;19917;-76
2023/08/23 07:43:11;;;;;;;;;;;39.50;34.10;;;;;;5032756;28;19936;-78
2023/08/23 07:45:36;;;;;;;;;;;39.90;33.70;;;;;;5034923;28;19955;-75
2023/08/23 07:48:02;;;;;;;;;;;40.20;32.80;;;;;;5033650;28;19916;-76
2023/08/23 07:50:27;;;;;;;;;;;40.50;32.30;;;;;;5034697;28;19968;-75
2023/08/23 07:52:53;;;;;;;;;;;40.70;31.80;;;;;;5032939;28;20011;-76
2023/08/23 07:55:18;;;;;;;;;;;40.80;31.10;;;;;;5034885;28;20313;-75
2023/08/23 07:57:44;;;;;;;;;;;40.90;30.90;;;;;;5035051;28;20016;-76
2023/08/23 08:00:09;;;;;;;;;;;41.00;30.70;;;;;;5033964;28;19979;-77
2023/08/23 08:02:35;;;;;;;;;;;41.20;30.90;;;;;;5034827;28;19913;-68
2023/08/23 08:05:00;;;;;;;;;;;41.30;30.50;;;;;;5032751;28;19925;-68
2023/08/23 08:07:28;;;;;;;;;;;41.30;29.80;;;;;;5033346;28;19910;-68
2023/08/23 08:09:53;;;;;;;;;;;41.30;28.70;;;;;;5034927;28;19939;-68
2023/08/23 08:12:19;;;;;;;;;;;41.10;28.30;;;;;;5033477;28;19917;-68
2023/08/23 08:14:44;;;;;;;;;;;40.90;27.40;;;;;;5032547;28;19917;-67
2023/08/23 08:17:09;;;;;;;;;;;40.60;27.90;;;;;;5034328;28;20378;-68
2023/08/23 08:19:35;;;;;;;;;;;40.50;28.20;;;;;;5034698;28;20265;-68
2023/08/23 08:22:00;;;;;;;;;;;40.40;28.00;;;;;;5031360;28;20288;-67
2023/08/23 08:24:27;;;;;;;;;;;40.30;27.20;;;;;;5034622;28;20281;-68
2023/08/23 08:26:53;;;;;;;;;;;40.00;27.50;;;;;;5033048;28;19919;-67
2023/08/23 08:29:18;;;;;;;;;;;39.80;28.00;;;;;;5034721;28;20343;-67
2023/08/23 08:31:44;;;;;;;;;;;39.70;28.30;;;;;;5031522;28;19909;-68
2023/08/23 08:34:10;;;;;;;;;;;39.50;28.40;;;;;;5033606;28;20504;-68
2023/08/23 08:36:35;;;;;;;;;;;39.40;28.30;;;;;;5034090;28;19913;-67
2023/08/23 08:39:01;;;;;;;;;;;39.30;28.30;;;;;;5031378;28;20418;-68
2023/08/23 08:41:27;;;;;;;;;;;39.20;28.10;;;;;;5033834;28;19920;-66
2023/08/23 08:43:52;;;;;;;;;;;39.10;27.90;;;;;;5034094;28;19917;-68
2023/08/23 08:46:18;;;;;;;;;;;39.00;28.10;;;;;;5033867;28;19909;-67
2023/08/23 08:48:45;;;;;;;;;;;39.00;28.30;;;;;;5033842;28;19924;-67
2023/08/23 08:51:18;;;;;;;;;;;38.90;28.40;;;;;;5032733;28;20273;-68
2023/08/23 08:53:45;;;;;;;;;;;38.80;28.50;;;;;;5033083;28;19917;-67
2023/08/23 08:56:11;;;;;;;;;;;38.90;28.60;;;;;;5032811;28;21295;-67
2023/08/23 08:58:37;;;;;;;;;;;39.00;28.30;;;;;;5033745;28;19982;-67
2023/08/23 09:01:03;;;;;;;;;;;39.10;28.20;;;;;;5032907;28;19913;-69
2023/08/23 09:03:29;;;;;;;;;;;39.10;28.40;;;;;;5033582;28;20387;-67
2023/08/23 09:05:55;;;;;;;;;;;39.10;28.20;;;;;;5032829;28;20000;-70
2023/08/23 09:08:21;;;;;;;;;;;39.10;28.00;;;;;;5033668;28;19917;-67
2023/08/23 09:10:46;;;;;;;;;;;39.00;27.60;;;;;;5033713;28;19948;-69
2023/08/23 09:13:12;;;;;;;;;;;38.70;27.60;;;;;;5033456;28;20332;-67
2023/08/23 09:15:37;;;;;;;;;;;38.60;27.90;;;;;;5031602;28;19913;-67
2023/08/23 09:18:03;;;;;;;;;;;38.80;28.40;;;;;;5033210;28;19917;-67
2023/08/23 09:20:28;;;;;;;;;;;39.20;28.40;;;;;;5032483;28;19959;-68
2023/08/23 09:22:54;;;;;;;;;;;39.60;27.60;;;;;;5033423;28;20379;-67
2023/08/23 09:25:20;;;;;;;;;;;39.90;27.40;;;;;;5032300;28;19932;-67
2023/08/23 09:27:46;;;;;;;;;;;40.30;27.00;;;;;;5033240;28;19917;-67
2023/08/23 09:30:12;;;;;;;;;;;40.80;26.60;;;;;;5030503;28;19924;-69
2023/08/23 09:32:39;;;;;;;;;;;41.10;26.00;;;;;;5032053;28;19913;-67
2023/08/23 09:35:10;;;;;;;;;;;41.40;25.00;;;;;;5031887;28;19960;-67
2023/08/23 09:37:38;;;;;;;;;;;41.50;25.00;;;;;;5033323;28;20364;-68
2023/08/23 09:40:04;;;;;;;;;;;41.70;24.80;;;;;;5032563;28;19970;-67
2023/08/23 09:42:31;;;;;;;;;;;41.80;24.40;;;;;;5031718;28;20006;-68
2023/08/23 09:44:57;;;;;;;;;;;41.80;23.80;;;;;;5033365;28;19919;-69
2023/08/23 09:47:24;;;;;;;;;;;41.60;24.20;;;;;;5032285;28;19913;-67
2023/08/23 09:49:51;;;;;;;;;;;41.80;24.30;;;;;;5032720;28;20471;-67
2023/08/23 09:52:17;;;;;;;;;;;42.00;24.10;;;;;;5031648;28;19952;-67
2023/08/23 09:54:53;;;;;;;;;;;41.90;24.00;;;;;;5033027;28;19939;-66
2023/08/23 09:57:20;;;;;;;;;;;41.80;24.00;;;;;;5031552;28;19988;-66
2023/08/23 09:59:45;;;;;;;;;;;41.90;24.20;;;;;;5032798;28;19928;-67
2023/08/23 10:02:14;;;;;;;;;;;42.00;24.30;;;;;;5032259;28;20279;-66
2023/08/23 10:04:43;;;;;;;;;;;42.00;23.80;;;;;;5032138;28;20376;-66
2023/08/23 10:07:08;;;;;;;;;;;41.80;23.60;;;;;;5031231;28;19920;-66
2023/08/23 10:09:38;;;;;;;;;;;41.80;24.10;;;;;;5032662;28;19917;-67
2023/08/23 10:12:05;;;;;;;;;;;42.00;23.90;;;;;;5031111;28;19944;-67
2023/08/23 10:14:32;;;;;;;;;;;42.00;23.70;;;;;;5032499;28;19956;-69
2023/08/23 10:16:58;;;;;;;;;;;42.20;23.40;;;;;;5032204;28;19909;-66
2023/08/23 10:19:24;;;;;;;;;;;42.10;22.90;;;;;;5030540;28;19925;-66
2023/08/23 10:21:49;;;;;;;;;;;41.90;23.10;;;;;;5032080;28;20262;-67
2023/08/23 10:24:15;;;;;;;;;;;41.90;23.40;;;;;;5030940;28;19924;-66
2023/08/23 10:26:44;;;;;;;;;;;42.00;23.20;;;;;;5032112;28;19916;-66
2023/08/23 10:29:09;;;;;;;;;;;42.00;22.60;;;;;;5032249;28;20379;-67
2023/08/23 10:31:35;;;;;;;;;;;41.90;22.20;;;;;;5031940;28;19913;-68
2023/08/23 10:34:01;;;;;;;;;;;41.70;22.50;;;;;;5032266;28;20020;-67
2023/08/23 10:36:28;;;;;;;;;;;41.60;23.00;;;;;;5029608;28;19913;-69
2023/08/23 10:38:55;;;;;;;;;;;41.70;23.30;;;;;;5032311;28;19917;-67
2023/08/23 10:41:21;;;;;;;;;;;41.80;23.50;;;;;;5030757;28;20475;-66
2023/08/23 10:43:50;;;;;;;;;;;41.90;23.50;;;;;;5031855;28;19921;-67
2023/08/23 10:46:16;;;;;;;;;;;42.20;23.20;;;;;;5030293;28;20229;-66
2023/08/23 10:48:42;;;;;;;;;;;42.30;22.90;;;;;;5030487;28;19917;-67
2023/08/23 10:51:07;;;;;;;;;;;42.30;22.30;;;;;;5030521;28;19924;-67
2023/08/23 10:53:32;;;;;;;;;;;42.30;22.20;;;;;;5031050;28;19917;-66
2023/08/23 10:56:02;;;;;;;;;;;42.10;22.20;;;;;;5031184;28;20395;-67
2023/08/23 10:58:27;;;;;;;;;;;42.10;22.30;;;;;;5029081;28;19917;-68
2023/08/23 11:00:53;;;;;;;;;;;42.10;22.50;;;;;;5030483;28;19917;-67
2023/08/23 11:03:21;;;;;;;;;;;42.20;22.40;;;;;;5031604;28;19917;-66
2023/08/23 11:05:47;;;;;;;;;;;42.10;21.80;;;;;;5030816;28;19953;-67
2023/08/23 11:08:12;;;;;;;;;;;42.00;21.80;;;;;;5031348;28;20392;-67
2023/08/23 11:10:38;;;;;;;;;;;41.70;21.60;;;;;;5029624;28;19995;-66
2023/08/23 11:13:03;;;;;;;;;;;41.30;21.50;;;;;;5031267;28;19909;-65
2023/08/23 11:15:29;;;;;;;;;;;40.90;22.20;;;;;;5031117;28;19917;-66
2023/08/23 11:17:57;;;;;;;;;;;40.80;22.80;;;;;;5029694;28;19921;-66
2023/08/23 11:20:24;;;;;;;;;;;40.80;22.60;;;;;;5031363;28;19921;-66
2023/08/23 11:22:49;;;;;;;;;;;40.80;22.90;;;;;;5030139;28;19936;-66
2023/08/23 11:25:15;;;;;;;;;;;40.80;22.50;;;;;;5031022;28;20011;-68
2023/08/23 11:27:41;;;;;;;;;;;40.70;22.50;;;;;;5029522;28;19909;-68
2023/08/23 11:30:07;;;;;;;;;;;40.70;22.60;;;;;;5031082;28;20625;-69
2023/08/23 11:32:32;;;;;;;;;;;40.60;22.70;;;;;;5031432;28;19916;-67
2023/08/23 11:34:59;;;;;;;;;;;40.60;22.60;;;;;;5028745;28;19943;-67
2023/08/23 11:37:24;;;;;;;;;;;40.50;22.70;;;;;;5031485;28;19909;-66
2023/08/23 11:40:02;;;;;;;;;;;40.50;22.60;;;;;;5030501;28;19923;-67
2023/08/23 11:42:28;;;;;;;;;;;40.30;23.10;;;;;;5031421;28;19913;-67
2023/08/23 11:44:54;;;;;;;;;;;40.30;22.80;;;;;;5030759;28;19924;-67
2023/08/23 11:47:23;;;;;;;;;;;40.10;23.00;;;;;;5030805;28;19913;-67
2023/08/23 11:49:48;;;;;;;;;;;40.10;23.10;;;;;;5031248;28;20013;-67
2023/08/23 11:52:16;;;;;;;;;;;40.20;22.80;;;;;;5028778;28;19952;-68
2023/08/23 11:54:42;;;;;;;;;;;40.20;22.80;;;;;;5030183;28;20044;-68
2023/08/23 11:57:08;;;;;;;;;;;40.10;22.60;;;;;;5031105;28;19999;-67
2023/08/23 11:59:33;;;;;;;;;;;40.00;23.00;;;;;;5030068;28;20013;-68
2023/08/23 12:01:59;;;;;;;;;;;39.80;23.20;;;;;;5030970;28;20281;-67
2023/08/23 12:04:24;;;;;;;;;;;39.70;23.20;;;;;;5031192;28;19927;-67
2023/08/23 12:06:50;;;;;;;;;;;39.40;23.30;;;;;;5031560;28;20012;-68
2023/08/23 12:09:15;;;;;;;;;;;39.20;23.40;;;;;;5034974;28;19936;-66
2023/08/23 12:11:41;;;;;;;;;;;39.00;23.60;;;;;;5033399;28;19960;-67
2023/08/23 12:14:06;;;;;;;;;;;38.80;24.00;;;;;;5033713;28;19928;-68
2023/08/23 12:16:32;;;;;;;;;;;38.90;23.60;;;;;;5032748;28;20047;-67
2023/08/23 12:18:58;;;;;;;;;;;38.80;23.70;;;;;;5034751;28;19917;-67
2023/08/23 12:21:23;;;;;;;;;;;38.80;24.10;;;;;;5033333;28;19913;-69
2023/08/23 12:23:49;;;;;;;;;;;38.80;24.30;;;;;;5032871;28;20280;-68
2023/08/23 12:26:17;;;;;;;;;;;39.00;24.40;;;;;;5034253;28;19920;-69
2023/08/23 12:28:42;;;;;;;;;;;39.30;24.20;;;;;;5033276;28;19917;-67
2023/08/23 12:31:08;;;;;;;;;;;39.50;24.10;;;;;;5034417;28;20275;-67
2023/08/23 12:33:33;;;;;;;;;;;39.70;24.00;;;;;;5034385;28;20281;-68
2023/08/23 12:35:59;;;;;;;;;;;39.80;23.20;;;;;;5033382;28;19914;-71
2023/08/23 12:38:24;;;;;;;;;;;40.00;23.30;;;;;;5033391;28;20339;-66
2023/08/23 12:40:50;;;;;;;;;;;40.00;23.50;;;;;;5033659;28;19917;-75
2023/08/23 12:43:16;;;;;;;;;;;40.10;23.00;;;;;;5034697;28;19921;-74
2023/08/23 12:45:41;;;;;;;;;;;40.00;23.20;;;;;;5033283;28;19966;-75
2023/08/23 12:48:08;;;;;;;;;;;40.10;23.10;;;;;;5034272;28;20380;-74
2023/08/23 12:50:33;;;;;;;;;;;40.10;23.10;;;;;;5032978;28;19917;-75
2023/08/23 12:52:59;;;;;;;;;;;40.10;23.10;;;;;;5033777;28;19921;-75
2023/08/23 12:55:24;;;;;;;;;;;40.10;23.30;;;;;;5034053;28;19917;-74
2023/08/23 12:57:50;;;;;;;;;;;40.10;22.90;;;;;;5033011;28;19963;-74
2023/08/23 13:00:16;;;;;;;;;;;40.20;22.90;;;;;;5032138;28;19928;-74
2023/08/23 13:02:41;;;;;;;;;;;40.20;22.70;;;;;;5033801;28;20012;-74
2023/08/23 13:05:07;;;;;;;;;;;40.20;22.70;;;;;;5033075;28;19940;-74
2023/08/23 13:07:33;;;;;;;;;;;40.20;22.50;;;;;;5033954;28;19909;-74
2023/08/23 13:09:59;;;;;;;;;;;40.20;22.70;;;;;;5033129;28;19918;-75
2023/08/23 13:12:25;;;;;;;;;;;40.30;22.60;;;;;;5033304;28;19931;-75
2023/08/23 13:14:50;;;;;;;;;;;40.20;22.20;;;;;;5033914;28;19967;-74
2023/08/23 13:17:16;;;;;;;;;;;40.10;22.80;;;;;;5032067;28;19917;-74
2023/08/23 13:19:41;;;;;;;;;;;40.10;22.70;;;;;;5034303;28;19978;-74
2023/08/23 13:22:07;;;;;;;;;;;39.80;22.60;;;;;;5032923;28;20004;-74
2023/08/23 13:24:32;;;;;;;;;;;39.80;22.70;;;;;;5034201;28;19943;-75
2023/08/23 13:26:58;;;;;;;;;;;39.70;23.00;;;;;;5032979;28;19961;-75
2023/08/23 13:29:23;;;;;;;;;;;39.70;23.30;;;;;;5030350;28;19925;-75
2023/08/23 13:31:48;;;;;;;;;;;39.70;23.20;;;;;;5033162;28;19909;-75
2023/08/23 13:34:14;;;;;;;;;;;39.60;23.00;;;;;;5033306;28;19928;-75
2023/08/23 13:36:41;;;;;;;;;;;39.50;22.90;;;;;;5031612;28;20427;-74
2023/08/23 13:39:07;;;;;;;;;;;39.10;22.90;;;;;;5033448;28;19960;-75
2023/08/23 13:41:32;;;;;;;;;;;38.90;23.30;;;;;;5030321;28;19917;-74
2023/08/23 13:43:58;;;;;;;;;;;38.80;23.40;;;;;;5032975;28;20369;-75
2023/08/23 13:46:23;;;;;;;;;;;38.80;23.50;;;;;;5032582;28;19955;-75
2023/08/23 13:48:48;;;;;;;;;;;38.80;23.50;;;;;;5031585;28;19921;-75
2023/08/23 13:51:14;;;;;;;;;;;38.70;23.60;;;;;;5032724;28;19917;-75
2023/08/23 13:53:42;;;;;;;;;;;38.40;23.20;;;;;;5032267;28;19917;-75
2023/08/23 13:56:07;;;;;;;;;;;38.20;23.90;;;;;;5032833;28;20066;-75
2023/08/23 13:58:33;;;;;;;;;;;38.10;24.10;;;;;;5032044;28;20020;-75
2023/08/23 14:00:58;;;;;;;;;;;38.00;24.20;;;;;;5032389;28;19913;-75
2023/08/23 14:03:24;;;;;;;;;;;37.60;24.20;;;;;;5015110;28;19925;-75
2023/08/23 14:05:57;;;;;;;;;;;37.10;24.60;;;;;;5031956;28;20430;-74
2023/08/23 14:08:22;;;;;;;;;;;36.70;25.00;;;;;;5032172;28;19924;-76